Relevés horaires Eggishorn (Suisse)


Relevés horaires à Eggishorn - Dimanche 08 Mars 2015
Heure UTC1 Température [°C] Vent [km/h] Hum. [%] Pres.4 [hPa] Visi. [Km] Nébu. [octa] Préc.5 [mm] Cond.
2m. Res. Ros. Dir.2 Vit. Moy. Raf.3
23:00 -0.1 -5.1 -11.8 NE 18.5 20.4 31.5 41 700(-0.5/3h) -- -- -- --
22:00 -0.1 -4.8 -11.5 NE 16.7 16.7 24.1 42 700(-0.2/3h) -- -- -- --
21:00 0.5 -3.4 -11.2 NNE 13.0 13.0 24.1 41 700(0.0/3h) -- -- -- --
20:00 -0.3 -2.9 -12.3 NNE 7.4 9.3 18.5 40 700(0.4/3h) -- -- -- --
19:00 -1.2 -3.2 -13.4 ENE 5.6 13.0 24.1 39 700(0.3/3h) -- -- -- --
18:00 -0.6 -3.8 -13.3 ENE 9.3 20.4 35.2 37 700(-0.1/3h) -- -- -- --
17:00 -0.1 -0.1 -12.6 ESE 3.7 11.1 18.5 38 700(-0.3/3h) -- -- -- --
16:00 1.4 -1.5 -12.7 NE 9.3 9.3 16.7 34 700(-0.7/3h) -- -- -- --
15:00 1.0 -1.9 -14.2 E 9.3 20.4 35.2 31 700(-0.8/3h) -- -- -- --
14:00 1.4 -1.5 -15.4 ESE 9.3 13.0 22.2 27 700(-1.0/3h) -- -- -- --
13:00 2.0 -1.6 -14.3 E 13.0 20.4 35.2 29 700(-0.7/3h) -- -- -- --
12:00 2.4 -2.3 -13.5 ENE 20.4 35.2 59.3 30 700(-0.2/3h) -- -- -- --
11:00 1.7 -3.4 -12.8 ENE 22.2 31.5 44.4 33 700(-0.1/3h) -- -- -- --
10:00 1.6 -4.3 -13.9 ENE 29.6 31.5 44.4 30 700(0.0/3h) -- -- -- --
09:00 1.9 -4.3 -14.2 ENE 33.3 35.2 59.3 29 700(0.1/3h) -- -- -- --
08:00 1.3 -4.9 -15.3 ENE 31.5 35.2 59.3 28 700(0.0/3h) -- -- -- --
07:00 0.2 -5.8 -19.0 ENE 25.9 27.8 40.7 22 700(-0.3/3h) -- -- -- --
06:00 -0.9 -7.2 -19.6 ENE 25.9 29.6 46.3 23 700(-0.7/3h) -- -- -- --
05:00 -0.9 -7.2 -20.8 ENE 25.9 27.8 46.3 20 700(-1.1/3h) -- -- -- --
04:00 -1.0 -7.5 -22.1 E 27.8 29.6 40.7 18 700(-1.4/3h) -- -- -- --
03:00 -1.7 -8.6 -26.5 ENE 29.6 29.6 37.0 13 700(-1.1/3h) -- -- -- --
02:00 -2.3 -8.7 -24.2 E 24.1 24.1 31.5 17 700(-0.7/3h) -- -- -- --
01:00 -2.4 -7.7 -24.2 ESE 16.7 16.7 22.2 17 700(-0.4/3h) -- -- -- --
00:00 -2.0 -6.5 -25.0 ENE 13.0 25.9 44.4 15 700(-0.4/3h) -- -- -- --

1 Coordinated Universal Time. Actuellement il est 12:00 locale et 10:00 UTC.

2 Le vent souffle depuis la direction indiquée vers la direction oposée.

3 Les rafales max. sont disponible 40 min après l'heure du relevé.

4 Pour les stations d'altitude (plus de 600m) le géopotentiel du niveau le plus proche de la pression obligatoire est indiqué.

5 Les stations disposant d'un diffuseur peuvent indiquer "trace". Cela signifie que des précipitations ont touchés le sol mais que la quantité est inférieure à 0.1 mm.

Copyright

Les données affichées sur cette page sont la propriété exclusive de Météo Suisse.

Récapitulatif de la journée
Température [°C] Vent [km/h] Ensoleillement4 [h] Precipitations totale5 [mm] Pression [Hpa]
Min1 Max.2 Moy.3 Max. Min Max.
-3.2 2.6 22.8 59.3 9 h 30 min 0 700.0 700.0

1 Température minimale relevée entre 18:00 UTC la veille et 18:00 UTC le jour donné.

2 Température maximale relevée entre 06:00 UTC le jour donné et 06:00 UTC le lendemain.

3 Vent moyen de la journée basé sur les relevés horaires.

4 Ensoleillement en heures relevé entre 06:00 UTC la veille et 06:00 UTC le jour donné.

5 Précipitations totales tombées entre 06:00 UTC la jour donné et 06:00 UTC le lendemain.

Graphiques horaires